Aérodrome :
LOGIN :

S'inscrire | Disclaimer

   EN    FR    IT 

 










Légende :    VFR   VFR Marginal   IFR   IFR Intensif   IFR Très Intensif
Visi : 
Plafond : 
>= 8 km
>= 3000ft
5 à 8 km
1000 à 3000 ft
1500m à 5 km
500 à 1000 ft
800 à 1500m
200 à 500 ft
< 800m
< 200 ft
Symboles :   Orages  Brouillard  Fortes neiges  Fortes précipitations  Vent > 20 kt
SIGMETs :   Divers  Orages  Givrage  Turbulence  Onde Orograph.  Cendres Volcan.







- Altitude de l'aérodrome : 82 ft
- Code IATA : QIE
- Voir les cartes d'approche


LFMI - Istres

DERNIER METAR :
  • 281200Z AUTO 27014KT 9999 FEW029/// BKN068/// ///TCU 24/16 Q1003 BECMG NSC

METARs EXPIRÉS :
  • 281130Z AUTO 27011KT 9999 ///TCU 24/14 Q1003 BECMG NSC
  • 281100Z AUTO 28014KT 9999 ///TCU 22/14 Q1003 BECMG NSC
  • 281030Z AUTO 28009KT 250V310 9999 ///CB 24/14 Q1003 BECMG NSC
  • 281000Z AUTO 30006KT 240V340 9999 ///CB 24/15 Q1003 BECMG NSC
  • 280930Z AUTO 30008KT 250V330 9999 ///CB 24/15 Q1003 BECMG NSC

TAF AMD TAF LFMI
Valide du 28 à 09h jusqu'au 29 à 09h UTC


280957Z 2809/2909 29008KT CAVOK
TEMPO 2809/2811 SHRA SCT018TCU
PROB30
TEMPO 2818/2820 VRB15G25KT SHRA SCT014TCU
BECMG 2906/2908 28015G27KT
Pas de NOTAMs connus pour ce terrain.
1 SIGMET publié pour la FIR Marseille (LFMM) :
 
Orages noyés dans la masse
LFMM SIGMET 9 VALID 281100/281300 LFPW
LFMM MARSEILLE FIR/UIR EMBD TS OBS AT 1100Z WI N4445 E00700 - N4400 E00700 - N4345 E00800 - N4230 E00730 - N4230 E00630 - N4415 E00600 TOP FL330 MOV NE 25KT NC=



MET'MAP, la Météo Aéronautique d'un coup d'oeil ! - Copyright ORBIFLY Décembre 2007 - Disclaimer

ORBIFLY MET'MAP TEAM :

Programmation & Développement : Alexandra Zaïnal
Conception & Développement : Baudouin d'Aumeries
Co-Programmation & Développement : Marc-Olivier Méhu
Soutien technique & logistique : Manuel Goepfert

Contact : metmap@orbifly.com




SOURCES & CREDITS :

   NOAA